sensor_id;sensor_type;location;lat;lon;timestamp;pressure;altitude;pressure_sealevel;temperature;humidity
40788;BME280;26497;52.494;7.546;2024-01-16T00:00:27;99913.84;;;4.51;64.29
40788;BME280;26497;52.494;7.546;2024-01-16T00:02:54;99918.06;;;4.41;63.89
40788;BME280;26497;52.494;7.546;2024-01-16T00:05:21;99921.59;;;4.45;63.39
40788;BME280;26497;52.494;7.546;2024-01-16T00:07:49;99926.63;;;4.31;64.33
40788;BME280;26497;52.494;7.546;2024-01-16T00:10:16;99923.19;;;4.33;65.06
40788;BME280;26497;52.494;7.546;2024-01-16T00:12:43;99931.00;;;4.32;64.45
40788;BME280;26497;52.494;7.546;2024-01-16T00:15:10;99935.34;;;4.31;64.84
40788;BME280;26497;52.494;7.546;2024-01-16T00:17:39;99936.09;;;4.21;64.97
40788;BME280;26497;52.494;7.546;2024-01-16T00:20:07;99928.16;;;4.15;66.46
40788;BME280;26497;52.494;7.546;2024-01-16T00:22:34;99928.03;;;4.05;66.08
40788;BME280;26497;52.494;7.546;2024-01-16T00:25:01;99939.50;;;4.17;65.63
40788;BME280;26497;52.494;7.546;2024-01-16T00:27:28;99928.22;;;4.18;64.91
40788;BME280;26497;52.494;7.546;2024-01-16T00:29:55;99925.56;;;4.15;64.88
40788;BME280;26497;52.494;7.546;2024-01-16T00:32:22;99935.16;;;4.17;64.29
40788;BME280;26497;52.494;7.546;2024-01-16T00:34:50;99938.44;;;4.04;64.48
40788;BME280;26497;52.494;7.546;2024-01-16T00:37:18;99937.28;;;3.84;65.84
40788;BME280;26497;52.494;7.546;2024-01-16T00:39:45;99944.41;;;3.93;66.06
40788;BME280;26497;52.494;7.546;2024-01-16T00:42:12;99948.47;;;3.76;66.43
40788;BME280;26497;52.494;7.546;2024-01-16T00:44:39;99946.88;;;3.84;66.67
40788;BME280;26497;52.494;7.546;2024-01-16T00:47:06;99954.00;;;3.94;65.97
40788;BME280;26497;52.494;7.546;2024-01-16T00:49:34;99954.09;;;4.04;64.42
40788;BME280;26497;52.494;7.546;2024-01-16T00:52:04;99966.28;;;4.03;65.10
40788;BME280;26497;52.494;7.546;2024-01-16T00:54:32;99970.56;;;3.98;64.85
40788;BME280;26497;52.494;7.546;2024-01-16T00:56:59;99980.13;;;3.97;65.39
40788;BME280;26497;52.494;7.546;2024-01-16T00:59:26;99978.63;;;4.13;63.91
40788;BME280;26497;52.494;7.546;2024-01-16T01:01:53;99976.81;;;4.11;63.49
40788;BME280;26497;52.494;7.546;2024-01-16T01:04:20;99983.59;;;3.96;64.37
40788;BME280;26497;52.494;7.546;2024-01-16T01:06:47;99986.00;;;3.84;65.06
40788;BME280;26497;52.494;7.546;2024-01-16T01:09:16;99985.91;;;3.78;65.37
40788;BME280;26497;52.494;7.546;2024-01-16T01:11:43;99984.19;;;3.81;65.58
40788;BME280;26497;52.494;7.546;2024-01-16T01:14:10;99996.38;;;3.82;65.60
40788;BME280;26497;52.494;7.546;2024-01-16T01:16:38;99998.94;;;3.79;66.06
40788;BME280;26497;52.494;7.546;2024-01-16T01:19:05;99999.16;;;3.90;66.08
40788;BME280;26497;52.494;7.546;2024-01-16T01:21:32;99999.00;;;3.81;67.17
40788;BME280;26497;52.494;7.546;2024-01-16T01:23:59;100001.00;;;3.97;66.49
40788;BME280;26497;52.494;7.546;2024-01-16T01:26:27;99999.16;;;3.90;66.37
40788;BME280;26497;52.494;7.546;2024-01-16T01:28:54;99994.03;;;3.96;65.54
40788;BME280;26497;52.494;7.546;2024-01-16T01:31:22;99994.91;;;3.98;66.11
40788;BME280;26497;52.494;7.546;2024-01-16T01:33:50;99998.34;;;3.96;65.36
40788;BME280;26497;52.494;7.546;2024-01-16T01:36:17;100002.69;;;3.95;65.72
40788;BME280;26497;52.494;7.546;2024-01-16T01:38:44;100001.84;;;3.96;65.13
40788;BME280;26497;52.494;7.546;2024-01-16T01:41:11;100001.97;;;4.04;65.17
40788;BME280;26497;52.494;7.546;2024-01-16T01:43:40;100009.69;;;3.99;65.39
40788;BME280;26497;52.494;7.546;2024-01-16T01:46:10;100006.97;;;3.92;66.66
40788;BME280;26497;52.494;7.546;2024-01-16T01:48:40;100009.84;;;4.07;65.37
40788;BME280;26497;52.494;7.546;2024-01-16T01:51:08;100006.66;;;3.72;66.82
40788;BME280;26497;52.494;7.546;2024-01-16T01:53:36;100008.63;;;3.87;67.30
40788;BME280;26497;52.494;7.546;2024-01-16T01:56:07;100011.44;;;4.01;65.93
40788;BME280;26497;52.494;7.546;2024-01-16T01:58:35;100010.59;;;4.00;64.71
40788;BME280;26497;52.494;7.546;2024-01-16T02:01:06;100008.16;;;3.57;66.96
40788;BME280;26497;52.494;7.546;2024-01-16T02:03:40;100006.50;;;3.64;66.17
40788;BME280;26497;52.494;7.546;2024-01-16T02:06:07;100004.91;;;3.72;65.18
40788;BME280;26497;52.494;7.546;2024-01-16T02:08:35;100005.59;;;3.62;65.44
40788;BME280;26497;52.494;7.546;2024-01-16T02:11:03;100004.81;;;3.66;65.81
40788;BME280;26497;52.494;7.546;2024-01-16T02:13:31;100017.63;;;3.53;66.88
40788;BME280;26497;52.494;7.546;2024-01-16T02:15:59;100017.84;;;3.66;67.12
40788;BME280;26497;52.494;7.546;2024-01-16T02:18:28;100016.19;;;3.69;68.23
40788;BME280;26497;52.494;7.546;2024-01-16T02:21:00;100015.59;;;3.88;66.90
40788;BME280;26497;52.494;7.546;2024-01-16T02:23:29;100025.25;;;3.92;67.39
40788;BME280;26497;52.494;7.546;2024-01-16T02:25:58;100012.25;;;3.95;67.32
40788;BME280;26497;52.494;7.546;2024-01-16T02:28:25;100016.66;;;3.97;67.16
40788;BME280;26497;52.494;7.546;2024-01-16T02:30:52;100021.78;;;3.93;66.13
40788;BME280;26497;52.494;7.546;2024-01-16T02:33:19;100024.38;;;3.93;66.84
40788;BME280;26497;52.494;7.546;2024-01-16T02:35:46;100021.03;;;4.02;66.04
40788;BME280;26497;52.494;7.546;2024-01-16T02:38:14;100029.59;;;3.91;65.21
40788;BME280;26497;52.494;7.546;2024-01-16T02:40:42;100033.09;;;3.93;65.55
40788;BME280;26497;52.494;7.546;2024-01-16T02:43:10;100036.38;;;3.81;66.40
40788;BME280;26497;52.494;7.546;2024-01-16T02:45:37;100026.91;;;3.87;66.04
40788;BME280;26497;52.494;7.546;2024-01-16T02:48:04;100037.34;;;3.87;66.04
40788;BME280;26497;52.494;7.546;2024-01-16T02:50:32;100044.25;;;3.83;65.95
40788;BME280;26497;52.494;7.546;2024-01-16T02:52:59;100039.13;;;3.91;65.95
40788;BME280;26497;52.494;7.546;2024-01-16T02:55:26;100040.56;;;3.73;66.79
40788;BME280;26497;52.494;7.546;2024-01-16T02:57:54;100040.88;;;3.90;66.39
40788;BME280;26497;52.494;7.546;2024-01-16T03:00:21;100046.28;;;4.03;66.45
40788;BME280;26497;52.494;7.546;2024-01-16T03:02:49;100041.81;;;3.94;67.00
40788;BME280;26497;52.494;7.546;2024-01-16T03:05:16;100040.16;;;3.99;67.12
40788;BME280;26497;52.494;7.546;2024-01-16T03:07:43;100034.22;;;4.09;66.96
40788;BME280;26497;52.494;7.546;2024-01-16T03:10:10;100050.69;;;4.05;66.50
40788;BME280;26497;52.494;7.546;2024-01-16T03:12:38;100049.69;;;3.97;66.72
40788;BME280;26497;52.494;7.546;2024-01-16T03:15:07;100042.50;;;3.83;67.68
40788;BME280;26497;52.494;7.546;2024-01-16T03:17:34;100046.88;;;3.84;68.12
40788;BME280;26497;52.494;7.546;2024-01-16T03:20:01;100047.88;;;3.93;67.71
40788;BME280;26497;52.494;7.546;2024-01-16T03:22:29;100050.69;;;4.05;67.01
40788;BME280;26497;52.494;7.546;2024-01-16T03:24:56;100053.19;;;4.01;66.51
40788;BME280;26497;52.494;7.546;2024-01-16T03:27:23;100056.00;;;4.13;65.77
40788;BME280;26497;52.494;7.546;2024-01-16T03:29:50;100048.88;;;4.03;66.55
40788;BME280;26497;52.494;7.546;2024-01-16T03:32:19;100044.53;;;4.02;66.09
40788;BME280;26497;52.494;7.546;2024-01-16T03:34:46;100047.88;;;3.91;65.82
40788;BME280;26497;52.494;7.546;2024-01-16T03:37:13;100042.53;;;3.85;65.80
40788;BME280;26497;52.494;7.546;2024-01-16T03:39:40;100042.34;;;3.74;65.96
40788;BME280;26497;52.494;7.546;2024-01-16T03:42:07;100045.16;;;3.87;65.07
40788;BME280;26497;52.494;7.546;2024-01-16T03:44:39;100040.63;;;3.76;65.25
40788;BME280;26497;52.494;7.546;2024-01-16T03:47:05;100043.97;;;3.67;66.15
40788;BME280;26497;52.494;7.546;2024-01-16T03:49:34;100039.72;;;3.73;65.03
40788;BME280;26497;52.494;7.546;2024-01-16T03:52:01;100039.50;;;3.62;66.61
40788;BME280;26497;52.494;7.546;2024-01-16T03:54:28;100036.03;;;3.61;65.90
40788;BME280;26497;52.494;7.546;2024-01-16T03:56:56;100034.22;;;3.59;65.83
40788;BME280;26497;52.494;7.546;2024-01-16T03:59:23;100036.91;;;3.62;66.16
40788;BME280;26497;52.494;7.546;2024-01-16T04:01:50;100036.03;;;3.61;65.98
40788;BME280;26497;52.494;7.546;2024-01-16T04:04:17;100044.50;;;3.49;67.47
40788;BME280;26497;52.494;7.546;2024-01-16T04:06:46;100043.06;;;3.67;67.18
40788;BME280;26497;52.494;7.546;2024-01-16T04:09:13;100040.84;;;3.87;67.13
40788;BME280;26497;52.494;7.546;2024-01-16T04:11:40;100048.94;;;4.04;67.32
40788;BME280;26497;52.494;7.546;2024-01-16T04:14:07;100048.03;;;4.04;67.44
40788;BME280;26497;52.494;7.546;2024-01-16T04:16:35;100046.22;;;3.98;67.99
40788;BME280;26497;52.494;7.546;2024-01-16T04:19:02;100042.75;;;3.97;68.14
40788;BME280;26497;52.494;7.546;2024-01-16T04:21:29;100036.78;;;4.06;68.15
40788;BME280;26497;52.494;7.546;2024-01-16T04:23:57;100038.59;;;4.10;67.62
40788;BME280;26497;52.494;7.546;2024-01-16T04:26:24;100037.88;;;4.21;68.16
40788;BME280;26497;52.494;7.546;2024-01-16T04:28:51;100038.78;;;4.24;68.11
40788;BME280;26497;52.494;7.546;2024-01-16T04:31:18;100044.28;;;4.41;66.94
40788;BME280;26497;52.494;7.546;2024-01-16T04:33:48;100047.53;;;4.25;67.57
40788;BME280;26497;52.494;7.546;2024-01-16T04:36:15;100034.59;;;4.34;66.89
40788;BME280;26497;52.494;7.546;2024-01-16T04:38:42;100042.34;;;4.30;66.98
40788;BME280;26497;52.494;7.546;2024-01-16T04:41:10;100042.06;;;4.11;67.03
40788;BME280;26497;52.494;7.546;2024-01-16T04:43:37;100039.44;;;4.09;66.61
40788;BME280;26497;52.494;7.546;2024-01-16T04:46:04;100040.19;;;4.02;67.18
40788;BME280;26497;52.494;7.546;2024-01-16T04:48:31;100044.44;;;3.95;66.54
40788;BME280;26497;52.494;7.546;2024-01-16T04:50:58;100045.25;;;3.93;67.36
40788;BME280;26497;52.494;7.546;2024-01-16T04:53:26;100040.16;;;3.99;65.67
40788;BME280;26497;52.494;7.546;2024-01-16T04:55:53;100039.94;;;3.87;66.80
40788;BME280;26497;52.494;7.546;2024-01-16T04:58:21;100040.47;;;3.67;68.04
40788;BME280;26497;52.494;7.546;2024-01-16T05:00:48;100042.16;;;3.63;68.11
40788;BME280;26497;52.494;7.546;2024-01-16T05:03:15;100047.66;;;3.79;67.98
40788;BME280;26497;52.494;7.546;2024-01-16T05:05:42;100038.75;;;3.69;68.87
40788;BME280;26497;52.494;7.546;2024-01-16T05:08:10;100044.88;;;3.71;68.77
40788;BME280;26497;52.494;7.546;2024-01-16T05:10:37;100038.75;;;3.69;68.67
40788;BME280;26497;52.494;7.546;2024-01-16T05:13:04;100043.13;;;3.68;68.69
40788;BME280;26497;52.494;7.546;2024-01-16T05:15:32;100037.97;;;3.73;68.59
40788;BME280;26497;52.494;7.546;2024-01-16T05:17:59;100041.59;;;3.81;68.38
40788;BME280;26497;52.494;7.546;2024-01-16T05:20:29;100043.28;;;3.78;68.07
40788;BME280;26497;52.494;7.546;2024-01-16T05:22:57;100045.84;;;3.75;68.29
40788;BME280;26497;52.494;7.546;2024-01-16T05:25:24;100033.66;;;3.74;68.59
40788;BME280;26497;52.494;7.546;2024-01-16T05:27:51;100037.25;;;3.82;67.26
40788;BME280;26497;52.494;7.546;2024-01-16T05:30:18;100039.78;;;3.77;67.63
40788;BME280;26497;52.494;7.546;2024-01-16T05:32:46;100035.56;;;3.84;67.16
40788;BME280;26497;52.494;7.546;2024-01-16T05:35:13;100031.34;;;3.92;66.11
40788;BME280;26497;52.494;7.546;2024-01-16T05:37:40;100033.03;;;3.89;65.97
40788;BME280;26497;52.494;7.546;2024-01-16T05:40:09;100033.69;;;3.77;66.74
40788;BME280;26497;52.494;7.546;2024-01-16T05:42:37;100028.16;;;3.60;67.06
40788;BME280;26497;52.494;7.546;2024-01-16T05:45:06;100022.16;;;3.64;66.92
40788;BME280;26497;52.494;7.546;2024-01-16T05:47:33;100019.47;;;3.59;67.19
40788;BME280;26497;52.494;7.546;2024-01-16T05:50:01;100016.56;;;3.42;67.87
40788;BME280;26497;52.494;7.546;2024-01-16T05:52:28;100022.88;;;3.55;67.42
40788;BME280;26497;52.494;7.546;2024-01-16T05:54:55;100019.22;;;3.44;68.31
40788;BME280;26497;52.494;7.546;2024-01-16T05:57:24;100015.75;;;3.46;68.63
40788;BME280;26497;52.494;7.546;2024-01-16T05:59:51;100027.03;;;3.45;68.09
40788;BME280;26497;52.494;7.546;2024-01-16T06:02:18;100023.97;;;3.66;67.14
40788;BME280;26497;52.494;7.546;2024-01-16T06:04:45;100027.47;;;3.70;65.94
40788;BME280;26497;52.494;7.546;2024-01-16T06:07:14;100021.28;;;3.63;65.94
40788;BME280;26497;52.494;7.546;2024-01-16T06:09:41;100018.91;;;3.28;67.60
40788;BME280;26497;52.494;7.546;2024-01-16T06:12:09;100022.00;;;3.54;66.69
40788;BME280;26497;52.494;7.546;2024-01-16T06:14:38;100022.56;;;3.38;67.85
40788;BME280;26497;52.494;7.546;2024-01-16T06:17:05;100007.06;;;3.46;67.64
40788;BME280;26497;52.494;7.546;2024-01-16T06:19:32;100013.25;;;3.52;66.27
40788;BME280;26497;52.494;7.546;2024-01-16T06:21:59;100019.84;;;3.32;67.53
40788;BME280;26497;52.494;7.546;2024-01-16T06:24:28;100017.22;;;3.32;66.82
40788;BME280;26497;52.494;7.546;2024-01-16T06:27:04;100015.06;;;3.57;66.16
40788;BME280;26497;52.494;7.546;2024-01-16T06:29:31;100010.72;;;3.56;65.73
40788;BME280;26497;52.494;7.546;2024-01-16T06:31:58;100014.00;;;3.44;66.23
40788;BME280;26497;52.494;7.546;2024-01-16T06:34:25;100010.59;;;3.48;66.27
40788;BME280;26497;52.494;7.546;2024-01-16T06:36:52;100012.28;;;3.46;66.50
40788;BME280;26497;52.494;7.546;2024-01-16T06:39:19;100012.28;;;3.46;66.60
40788;BME280;26497;52.494;7.546;2024-01-16T06:41:48;100009.41;;;3.32;67.07
40788;BME280;26497;52.494;7.546;2024-01-16T06:44:15;100021.59;;;3.31;66.55
40788;BME280;26497;52.494;7.546;2024-01-16T06:46:42;100016.38;;;3.33;67.03
40788;BME280;26497;52.494;7.546;2024-01-16T06:49:09;100007.63;;;3.28;68.03
40788;BME280;26497;52.494;7.546;2024-01-16T06:51:36;100009.50;;;3.36;67.16
40788;BME280;26497;52.494;7.546;2024-01-16T06:54:04;100011.50;;;3.51;65.97
40788;BME280;26497;52.494;7.546;2024-01-16T06:56:31;100014.97;;;3.50;66.20
40788;BME280;26497;52.494;7.546;2024-01-16T06:58:59;100022.88;;;3.55;65.68
40788;BME280;26497;52.494;7.546;2024-01-16T07:01:27;100012.47;;;3.57;65.14
40788;BME280;26497;52.494;7.546;2024-01-16T07:03:54;100017.56;;;3.49;66.10
40788;BME280;26497;52.494;7.546;2024-01-16T07:06:21;100022.25;;;3.68;64.61
40788;BME280;26497;52.494;7.546;2024-01-16T07:08:48;100015.81;;;3.48;66.50
40788;BME280;26497;52.494;7.546;2024-01-16T07:11:15;100025.44;;;3.53;65.67
40788;BME280;26497;52.494;7.546;2024-01-16T07:13:43;100030.84;;;3.63;65.36
40788;BME280;26497;52.494;7.546;2024-01-16T07:16:11;100028.56;;;3.34;67.32
40788;BME280;26497;52.494;7.546;2024-01-16T07:18:40;100036.84;;;3.57;65.92
40788;BME280;26497;52.494;7.546;2024-01-16T07:21:17;100033.16;;;3.46;67.08
40788;BME280;26497;52.494;7.546;2024-01-16T07:23:44;100043.66;;;3.50;67.31
40788;BME280;26497;52.494;7.546;2024-01-16T07:26:11;100042.63;;;3.42;67.43
40788;BME280;26497;52.494;7.546;2024-01-16T07:28:38;100043.53;;;3.43;67.42
40788;BME280;26497;52.494;7.546;2024-01-16T07:31:05;100046.19;;;3.47;67.95
40788;BME280;26497;52.494;7.546;2024-01-16T07:33:34;100042.78;;;3.51;67.96
40788;BME280;26497;52.494;7.546;2024-01-16T07:36:01;100046.34;;;3.55;66.78
40788;BME280;26497;52.494;7.546;2024-01-16T07:38:28;100050.00;;;3.65;67.13
40788;BME280;26497;52.494;7.546;2024-01-16T07:40:55;100052.53;;;3.62;67.75
40788;BME280;26497;52.494;7.546;2024-01-16T07:43:22;100052.44;;;3.56;68.24
40788;BME280;26497;52.494;7.546;2024-01-16T07:45:50;100051.88;;;3.72;68.47
40788;BME280;26497;52.494;7.546;2024-01-16T07:48:17;100053.84;;;3.86;67.49
40788;BME280;26497;52.494;7.546;2024-01-16T07:50:45;100060.00;;;3.91;67.29
40788;BME280;26497;52.494;7.546;2024-01-16T07:53:12;100067.25;;;4.07;67.02
40788;BME280;26497;52.494;7.546;2024-01-16T07:55:39;100068.22;;;4.12;67.07
40788;BME280;26497;52.494;7.546;2024-01-16T07:58:06;100075.13;;;4.10;68.09
40788;BME280;26497;52.494;7.546;2024-01-16T08:00:33;100074.47;;;4.24;68.27
40788;BME280;26497;52.494;7.546;2024-01-16T08:03:00;100072.56;;;4.13;68.84
40788;BME280;26497;52.494;7.546;2024-01-16T08:05:28;100067.50;;;4.23;68.67
40788;BME280;26497;52.494;7.546;2024-01-16T08:07:57;100076.34;;;4.31;68.81
40788;BME280;26497;52.494;7.546;2024-01-16T08:10:24;100079.72;;;4.25;69.21
40788;BME280;26497;52.494;7.546;2024-01-16T08:12:51;100076.38;;;4.36;69.20
40788;BME280;26497;52.494;7.546;2024-01-16T08:15:19;100072.28;;;4.52;68.84
40788;BME280;26497;52.494;7.546;2024-01-16T08:17:46;100081.09;;;4.58;68.83
40788;BME280;26497;52.494;7.546;2024-01-16T08:20:13;100071.00;;;4.85;68.24
40788;BME280;26497;52.494;7.546;2024-01-16T08:22:40;100075.44;;;4.92;68.45
40788;BME280;26497;52.494;7.546;2024-01-16T08:25:09;100081.19;;;4.66;68.51
40788;BME280;26497;52.494;7.546;2024-01-16T08:27:36;100087.44;;;4.78;68.61
40788;BME280;26497;52.494;7.546;2024-01-16T08:30:05;100081.53;;;4.91;67.95
40788;BME280;26497;52.494;7.546;2024-01-16T08:32:33;100082.47;;;4.95;67.32
40788;BME280;26497;52.494;7.546;2024-01-16T08:35:00;100078.94;;;4.93;67.46
40788;BME280;26497;52.494;7.546;2024-01-16T08:37:27;100079.03;;;4.99;66.89
40788;BME280;26497;52.494;7.546;2024-01-16T08:39:54;100087.59;;;4.89;67.62
40788;BME280;26497;52.494;7.546;2024-01-16T08:42:23;100082.44;;;4.93;67.10
40788;BME280;26497;52.494;7.546;2024-01-16T08:44:50;100083.19;;;4.86;67.38
40788;BME280;26497;52.494;7.546;2024-01-16T08:47:17;100083.97;;;4.79;67.57
40788;BME280;26497;52.494;7.546;2024-01-16T08:49:45;100084.19;;;4.93;67.95
40788;BME280;26497;52.494;7.546;2024-01-16T08:52:12;100082.56;;;5.02;67.19
40788;BME280;26497;52.494;7.546;2024-01-16T08:54:39;100077.19;;;4.93;67.72
40788;BME280;26497;52.494;7.546;2024-01-16T08:57:06;100070.41;;;5.06;67.04
40788;BME280;26497;52.494;7.546;2024-01-16T08:59:35;100066.84;;;4.99;67.18
40788;BME280;26497;52.494;7.546;2024-01-16T09:02:02;100078.03;;;4.89;67.39
40788;BME280;26497;52.494;7.546;2024-01-16T09:04:29;100084.22;;;4.97;66.95
40788;BME280;26497;52.494;7.546;2024-01-16T09:06:56;100095.44;;;4.90;67.63
40788;BME280;26497;52.494;7.546;2024-01-16T09:09:23;100095.38;;;4.84;68.42
40788;BME280;26497;52.494;7.546;2024-01-16T09:11:50;100093.00;;;5.01;68.78
40788;BME280;26497;52.494;7.546;2024-01-16T09:14:17;100102.44;;;4.91;68.98
40788;BME280;26497;52.494;7.546;2024-01-16T09:16:47;100101.56;;;4.91;69.37
40788;BME280;26497;52.494;7.546;2024-01-16T09:19:14;100094.47;;;4.82;70.68
40788;BME280;26497;52.494;7.546;2024-01-16T09:21:41;100096.63;;;5.14;70.19
40788;BME280;26497;52.494;7.546;2024-01-16T09:24:08;100103.56;;;5.10;70.51
40788;BME280;26497;52.494;7.546;2024-01-16T09:26:36;100092.31;;;5.16;70.28
40788;BME280;26497;52.494;7.546;2024-01-16T09:29:03;100086.03;;;5.00;71.19
40788;BME280;26497;52.494;7.546;2024-01-16T09:31:30;100089.06;;;5.36;69.74
40788;BME280;26497;52.494;7.546;2024-01-16T09:33:59;100085.63;;;5.40;69.90
40788;BME280;26497;52.494;7.546;2024-01-16T09:36:26;100091.78;;;5.45;70.14
40788;BME280;26497;52.494;7.546;2024-01-16T09:38:53;100089.31;;;5.57;69.31
40788;BME280;26497;52.494;7.546;2024-01-16T09:41:20;100081.38;;;5.51;69.14
40788;BME280;26497;52.494;7.546;2024-01-16T09:43:48;100087.56;;;5.56;69.60
40788;BME280;26497;52.494;7.546;2024-01-16T09:46:16;100082.53;;;5.78;69.39
40788;BME280;26497;52.494;7.546;2024-01-16T09:48:45;100082.78;;;6.03;68.62
40788;BME280;26497;52.494;7.546;2024-01-16T09:51:14;100088.88;;;6.02;67.89
40788;BME280;26497;52.494;7.546;2024-01-16T09:53:41;100084.56;;;6.07;67.36
40788;BME280;26497;52.494;7.546;2024-01-16T09:56:15;100086.19;;;5.99;67.49
40788;BME280;26497;52.494;7.546;2024-01-16T09:58:44;100090.31;;;5.69;68.49
40788;BME280;26497;52.494;7.546;2024-01-16T10:01:12;100094.94;;;5.99;68.30
40788;BME280;26497;52.494;7.546;2024-01-16T10:03:41;100088.13;;;6.14;68.39
40788;BME280;26497;52.494;7.546;2024-01-16T10:06:11;100090.56;;;5.98;68.11
40788;BME280;26497;52.494;7.546;2024-01-16T10:08:40;100091.59;;;6.14;68.65
40788;BME280;26497;52.494;7.546;2024-01-16T10:11:08;100091.34;;;5.86;68.63
40788;BME280;26497;52.494;7.546;2024-01-16T10:13:36;100095.13;;;6.16;68.72
40788;BME280;26497;52.494;7.546;2024-01-16T10:16:04;100090.91;;;6.34;67.81
40788;BME280;26497;52.494;7.546;2024-01-16T10:18:31;100095.28;;;6.35;66.69
40788;BME280;26497;52.494;7.546;2024-01-16T10:21:00;100090.88;;;6.31;68.17
40788;BME280;26497;52.494;7.546;2024-01-16T10:23:28;100085.56;;;6.22;68.27
40788;BME280;26497;52.494;7.546;2024-01-16T10:26:12;100090.28;;;6.72;68.14
40788;BME280;26497;52.494;7.546;2024-01-16T10:28:41;100091.13;;;6.65;66.72
40788;BME280;26497;52.494;7.546;2024-01-16T10:31:10;100073.69;;;6.70;66.33
40788;BME280;26497;52.494;7.546;2024-01-16T10:33:39;100080.63;;;6.62;65.24
40788;BME280;26497;52.494;7.546;2024-01-16T10:36:11;100078.03;;;6.68;66.52
40788;BME280;26497;52.494;7.546;2024-01-16T10:38:39;100082.53;;;6.92;66.27
40788;BME280;26497;52.494;7.546;2024-01-16T10:41:09;100083.31;;;6.74;64.64
40788;BME280;26497;52.494;7.546;2024-01-16T10:43:38;100079.75;;;6.61;66.58
40788;BME280;26497;52.494;7.546;2024-01-16T10:46:40;100073.66;;;6.66;66.29
40788;BME280;26497;52.494;7.546;2024-01-16T10:49:07;100068.31;;;6.47;66.99
40788;BME280;26497;52.494;7.546;2024-01-16T10:51:34;100064.88;;;6.54;66.89
40788;BME280;26497;52.494;7.546;2024-01-16T10:54:04;100060.69;;;6.90;67.51
40788;BME280;26497;52.494;7.546;2024-01-16T10:56:32;100062.38;;;6.79;66.17
40788;BME280;26497;52.494;7.546;2024-01-16T10:59:08;100057.28;;;7.05;66.27
40788;BME280;26497;52.494;7.546;2024-01-16T11:01:40;100054.69;;;7.16;66.31
40788;BME280;26497;52.494;7.546;2024-01-16T11:04:10;100050.16;;;6.83;65.22
40788;BME280;26497;52.494;7.546;2024-01-16T11:06:39;100058.97;;;6.99;66.00
40788;BME280;26497;52.494;7.546;2024-01-16T11:09:07;100054.56;;;6.88;63.55
40788;BME280;26497;52.494;7.546;2024-01-16T11:11:35;100052.06;;;7.12;64.95
40788;BME280;26497;52.494;7.546;2024-01-16T11:14:06;100059.94;;;7.22;64.01
40788;BME280;26497;52.494;7.546;2024-01-16T11:16:34;100051.22;;;7.25;64.52
40788;BME280;26497;52.494;7.546;2024-01-16T11:19:03;100061.59;;;6.97;62.53
40788;BME280;26497;52.494;7.546;2024-01-16T11:21:32;100059.88;;;7.02;64.61
40788;BME280;26497;52.494;7.546;2024-01-16T11:23:59;100053.69;;;6.88;64.44
40788;BME280;26497;52.494;7.546;2024-01-16T11:26:27;100057.13;;;6.77;64.68
40788;BME280;26497;52.494;7.546;2024-01-16T11:28:57;100059.72;;;6.73;65.43
40788;BME280;26497;52.494;7.546;2024-01-16T11:31:30;100055.47;;;6.92;64.91
40788;BME280;26497;52.494;7.546;2024-01-16T11:33:58;100059.06;;;7.16;64.61
40788;BME280;26497;52.494;7.546;2024-01-16T11:36:50;100064.25;;;7.00;65.98
40788;BME280;26497;52.494;7.546;2024-01-16T11:39:20;100058.19;;;7.21;65.45
40788;BME280;26497;52.494;7.546;2024-01-16T11:41:53;100052.84;;;6.97;65.64
40788;BME280;26497;52.494;7.546;2024-01-16T11:44:43;100046.81;;;7.12;66.62
40788;BME280;26497;52.494;7.546;2024-01-16T11:47:17;100046.72;;;6.93;64.61
40788;BME280;26497;52.494;7.546;2024-01-16T11:49:45;100051.09;;;6.96;65.03
40788;BME280;26497;52.494;7.546;2024-01-16T11:52:13;100047.66;;;7.09;64.68
40788;BME280;26497;52.494;7.546;2024-01-16T11:54:41;100041.47;;;6.93;65.02
40788;BME280;26497;52.494;7.546;2024-01-16T11:57:36;100047.47;;;6.70;63.91
40788;BME280;26497;52.494;7.546;2024-01-16T12:00:19;100044.78;;;6.58;63.30
40788;BME280;26497;52.494;7.546;2024-01-16T12:02:53;100051.56;;;6.26;64.97
40788;BME280;26497;52.494;7.546;2024-01-16T12:05:21;100053.34;;;6.32;65.28
40788;BME280;26497;52.494;7.546;2024-01-16T12:07:50;100046.50;;;6.53;64.30
40788;BME280;26497;52.494;7.546;2024-01-16T12:10:19;100049.19;;;6.60;64.99
40788;BME280;26497;52.494;7.546;2024-01-16T12:12:48;100040.34;;;6.44;64.21
40788;BME280;26497;52.494;7.546;2024-01-16T12:15:16;100043.44;;;5.95;65.32
40788;BME280;26497;52.494;7.546;2024-01-16T12:17:56;100038.34;;;6.12;65.19
40788;BME280;26497;52.494;7.546;2024-01-16T12:20:24;100034.91;;;6.15;65.68
40788;BME280;26497;52.494;7.546;2024-01-16T12:22:59;100025.38;;;6.28;65.09
40788;BME280;26497;52.494;7.546;2024-01-16T12:25:28;100021.75;;;6.05;65.13
40788;BME280;26497;52.494;7.546;2024-01-16T12:27:56;100030.38;;;6.00;65.98
40788;BME280;26497;52.494;7.546;2024-01-16T12:30:25;100028.53;;;5.88;66.31
40788;BME280;26497;52.494;7.546;2024-01-16T12:33:05;100018.28;;;6.14;66.23
40788;BME280;26497;52.494;7.546;2024-01-16T12:35:34;100017.47;;;6.20;65.64
40788;BME280;26497;52.494;7.546;2024-01-16T12:38:03;100003.53;;;6.21;65.61
40788;BME280;26497;52.494;7.546;2024-01-16T12:40:31;100001.84;;;6.32;64.98
40788;BME280;26497;52.494;7.546;2024-01-16T12:42:59;100002.72;;;6.31;65.04
40788;BME280;26497;52.494;7.546;2024-01-16T12:45:26;100001.97;;;6.51;65.17
40788;BME280;26497;52.494;7.546;2024-01-16T12:47:55;100003.00;;;6.83;65.12
40788;BME280;26497;52.494;7.546;2024-01-16T12:50:27;99995.22;;;7.09;63.36
40788;BME280;26497;52.494;7.546;2024-01-16T12:53:05;100004.84;;;7.16;62.71
40788;BME280;26497;52.494;7.546;2024-01-16T12:55:33;99995.94;;;6.74;62.58
40788;BME280;26497;52.494;7.546;2024-01-16T12:58:17;99995.72;;;6.29;61.70
40788;BME280;26497;52.494;7.546;2024-01-16T13:00:46;100000.09;;;6.31;62.26
40788;BME280;26497;52.494;7.546;2024-01-16T13:03:17;99990.66;;;6.60;61.90
40788;BME280;26497;52.494;7.546;2024-01-16T13:05:54;99990.69;;;6.61;61.97
40788;BME280;26497;52.494;7.546;2024-01-16T13:08:22;99987.88;;;6.32;60.89